sensor_id;sensor_type;location;lat;lon;timestamp;pressure;altitude;pressure_sealevel;temperature;humidity
48156;BME280;35568;48.104;11.782;2024-02-14T00:01:17;95817.37;;;1.35;52.85
48156;BME280;35568;48.104;11.782;2024-02-14T00:03:44;95818.93;;;1.18;52.98
48156;BME280;35568;48.104;11.782;2024-02-14T00:06:11;95817.13;;;1.70;52.87
48156;BME280;35568;48.104;11.782;2024-02-14T00:08:38;95818.38;;;1.47;52.82
48156;BME280;35568;48.104;11.782;2024-02-14T00:11:05;95817.26;;;1.34;52.50
48156;BME280;35568;48.104;11.782;2024-02-14T00:13:32;95817.65;;;1.28;52.71
48156;BME280;35568;48.104;11.782;2024-02-14T00:15:59;95819.42;;;1.50;52.66
48156;BME280;35568;48.104;11.782;2024-02-14T00:18:26;95823.36;;;1.37;52.37
48156;BME280;35568;48.104;11.782;2024-02-14T00:20:52;95821.61;;;1.55;52.37
48156;BME280;35568;48.104;11.782;2024-02-14T00:23:20;95823.73;;;1.83;52.31
48156;BME280;35568;48.104;11.782;2024-02-14T00:25:47;95824.06;;;1.66;52.04
48156;BME280;35568;48.104;11.782;2024-02-14T00:28:14;95827.03;;;1.56;51.82
48156;BME280;35568;48.104;11.782;2024-02-14T00:30:41;95828.76;;;1.46;51.89
48156;BME280;35568;48.104;11.782;2024-02-14T00:33:08;95829.29;;;1.49;52.10
48156;BME280;35568;48.104;11.782;2024-02-14T00:35:35;95828.10;;;1.43;52.31
48156;BME280;35568;48.104;11.782;2024-02-14T00:38:02;95827.32;;;1.53;52.15
48156;BME280;35568;48.104;11.782;2024-02-14T00:40:28;95826.27;;;1.93;51.89
48156;BME280;35568;48.104;11.782;2024-02-14T00:42:56;95828.49;;;1.45;51.99
48156;BME280;35568;48.104;11.782;2024-02-14T00:45:23;95826.81;;;1.50;51.77
48156;BME280;35568;48.104;11.782;2024-02-14T00:47:50;95829.96;;;1.59;51.77
48156;BME280;35568;48.104;11.782;2024-02-14T00:50:17;95829.56;;;1.76;51.56
48156;BME280;35568;48.104;11.782;2024-02-14T00:52:44;95831.01;;;1.63;51.86
48156;BME280;35568;48.104;11.782;2024-02-14T00:55:11;95831.51;;;1.86;51.81
48156;BME280;35568;48.104;11.782;2024-02-14T00:57:38;95835.59;;;1.61;51.71
48156;BME280;35568;48.104;11.782;2024-02-14T01:00:07;95833.38;;;2.15;51.83
48156;BME280;35568;48.104;11.782;2024-02-14T01:02:34;95832.84;;;1.93;51.54
48156;BME280;35568;48.104;11.782;2024-02-14T01:05:01;95830.77;;;1.75;51.57
48156;BME280;35568;48.104;11.782;2024-02-14T01:07:29;95834.73;;;1.76;51.30
48156;BME280;35568;48.104;11.782;2024-02-14T01:09:56;95836.76;;;1.89;51.14
48156;BME280;35568;48.104;11.782;2024-02-14T01:12:24;95837.62;;;1.89;51.58
48156;BME280;35568;48.104;11.782;2024-02-14T01:14:50;95840.03;;;1.78;51.51
48156;BME280;35568;48.104;11.782;2024-02-14T01:17:17;95843.07;;;1.90;51.42
48156;BME280;35568;48.104;11.782;2024-02-14T01:19:44;95842.59;;;1.99;51.14
48156;BME280;35568;48.104;11.782;2024-02-14T01:22:11;95842.96;;;1.27;51.19
48156;BME280;35568;48.104;11.782;2024-02-14T01:24:38;95847.19;;;2.55;50.45
48156;BME280;35568;48.104;11.782;2024-02-14T01:27:05;95844.06;;;2.35;50.66
48156;BME280;35568;48.104;11.782;2024-02-14T01:29:32;95842.58;;;2.22;50.82
48156;BME280;35568;48.104;11.782;2024-02-14T01:32:00;95844.94;;;2.21;50.51
48156;BME280;35568;48.104;11.782;2024-02-14T01:34:26;95847.23;;;2.38;50.44
48156;BME280;35568;48.104;11.782;2024-02-14T01:36:54;95847.92;;;2.00;50.57
48156;BME280;35568;48.104;11.782;2024-02-14T01:39:21;95845.29;;;2.00;50.33
48156;BME280;35568;48.104;11.782;2024-02-14T01:41:48;95847.20;;;1.90;50.90
48156;BME280;35568;48.104;11.782;2024-02-14T01:44:16;95844.64;;;2.11;51.36
48156;BME280;35568;48.104;11.782;2024-02-14T01:46:44;95841.27;;;1.98;51.04
48156;BME280;35568;48.104;11.782;2024-02-14T01:49:12;95842.01;;;1.95;51.03
48156;BME280;35568;48.104;11.782;2024-02-14T01:51:42;95840.06;;;2.28;50.59
48156;BME280;35568;48.104;11.782;2024-02-14T01:54:10;95841.54;;;2.07;51.21
48156;BME280;35568;48.104;11.782;2024-02-14T01:56:38;95843.47;;;2.09;50.65
48156;BME280;35568;48.104;11.782;2024-02-14T01:59:07;95842.28;;;2.14;50.59
48156;BME280;35568;48.104;11.782;2024-02-14T02:01:35;95844.21;;;2.18;50.57
48156;BME280;35568;48.104;11.782;2024-02-14T02:04:02;95844.15;;;2.26;50.37
48156;BME280;35568;48.104;11.782;2024-02-14T02:06:30;95845.23;;;2.30;50.71
48156;BME280;35568;48.104;11.782;2024-02-14T02:08:58;95848.39;;;2.41;50.07
48156;BME280;35568;48.104;11.782;2024-02-14T02:11:26;95847.56;;;2.07;50.37
48156;BME280;35568;48.104;11.782;2024-02-14T02:13:53;95848.64;;;2.23;50.19
48156;BME280;35568;48.104;11.782;2024-02-14T02:16:20;95849.56;;;2.38;50.02
48156;BME280;35568;48.104;11.782;2024-02-14T02:18:47;95845.27;;;2.35;50.28
48156;BME280;35568;48.104;11.782;2024-02-14T02:21:15;95844.60;;;2.40;50.00
48156;BME280;35568;48.104;11.782;2024-02-14T02:23:41;95843.24;;;2.38;50.37
48156;BME280;35568;48.104;11.782;2024-02-14T02:26:08;95845.24;;;2.34;50.10
48156;BME280;35568;48.104;11.782;2024-02-14T02:28:35;95842.69;;;2.29;50.23
48156;BME280;35568;48.104;11.782;2024-02-14T02:31:02;95845.49;;;2.39;50.45
48156;BME280;35568;48.104;11.782;2024-02-14T02:33:30;95851.88;;;2.51;50.31
48156;BME280;35568;48.104;11.782;2024-02-14T02:35:57;95853.85;;;2.28;49.59
48156;BME280;35568;48.104;11.782;2024-02-14T02:38:24;95852.88;;;2.43;50.08
48156;BME280;35568;48.104;11.782;2024-02-14T02:40:51;95858.32;;;2.45;49.95
48156;BME280;35568;48.104;11.782;2024-02-14T02:43:18;95860.98;;;2.49;49.45
48156;BME280;35568;48.104;11.782;2024-02-14T02:45:45;95855.50;;;2.10;50.24
48156;BME280;35568;48.104;11.782;2024-02-14T02:48:12;95849.56;;;2.13;50.62
48156;BME280;35568;48.104;11.782;2024-02-14T02:50:39;95849.01;;;1.98;50.72
48156;BME280;35568;48.104;11.782;2024-02-14T02:53:06;95851.93;;;2.01;50.20
48156;BME280;35568;48.104;11.782;2024-02-14T02:55:33;95855.69;;;2.03;50.15
48156;BME280;35568;48.104;11.782;2024-02-14T02:58:00;95857.04;;;1.87;50.15
48156;BME280;35568;48.104;11.782;2024-02-14T03:00:27;95859.37;;;1.79;50.28
48156;BME280;35568;48.104;11.782;2024-02-14T03:02:54;95862.77;;;2.02;50.31
48156;BME280;35568;48.104;11.782;2024-02-14T03:05:21;95862.21;;;1.88;50.28
48156;BME280;35568;48.104;11.782;2024-02-14T03:07:47;95861.59;;;1.93;50.05
48156;BME280;35568;48.104;11.782;2024-02-14T03:10:15;95861.08;;;2.05;49.94
48156;BME280;35568;48.104;11.782;2024-02-14T03:12:42;95857.80;;;2.01;49.82
48156;BME280;35568;48.104;11.782;2024-02-14T03:15:09;95859.52;;;1.88;49.85
48156;BME280;35568;48.104;11.782;2024-02-14T03:17:37;95862.46;;;2.05;49.81
48156;BME280;35568;48.104;11.782;2024-02-14T03:20:04;95867.54;;;1.74;50.08
48156;BME280;35568;48.104;11.782;2024-02-14T03:22:31;95866.24;;;2.05;49.85
48156;BME280;35568;48.104;11.782;2024-02-14T03:24:58;95855.80;;;1.89;49.97
48156;BME280;35568;48.104;11.782;2024-02-14T03:27:25;95856.43;;;1.86;49.92
48156;BME280;35568;48.104;11.782;2024-02-14T03:29:52;95855.32;;;2.05;49.67
48156;BME280;35568;48.104;11.782;2024-02-14T03:32:19;95857.13;;;1.88;49.60
48156;BME280;35568;48.104;11.782;2024-02-14T03:34:46;95859.01;;;1.86;49.45
48156;BME280;35568;48.104;11.782;2024-02-14T03:37:13;95857.90;;;1.84;49.39
48156;BME280;35568;48.104;11.782;2024-02-14T03:39:40;95857.78;;;1.81;49.38
48156;BME280;35568;48.104;11.782;2024-02-14T03:42:07;95856.10;;;2.05;49.50
48156;BME280;35568;48.104;11.782;2024-02-14T03:44:33;95857.31;;;1.99;49.54
48156;BME280;35568;48.104;11.782;2024-02-14T03:47:00;95853.08;;;1.70;49.74
48156;BME280;35568;48.104;11.782;2024-02-14T03:49:27;95851.74;;;2.00;49.89
48156;BME280;35568;48.104;11.782;2024-02-14T03:51:54;95854.18;;;1.80;49.79
48156;BME280;35568;48.104;11.782;2024-02-14T03:54:21;95850.45;;;2.02;49.92
48156;BME280;35568;48.104;11.782;2024-02-14T03:56:48;95851.95;;;2.12;49.75
48156;BME280;35568;48.104;11.782;2024-02-14T03:59:15;95850.96;;;1.87;49.64
48156;BME280;35568;48.104;11.782;2024-02-14T04:03:00;95856.83;;;2.05;49.06
48156;BME280;35568;48.104;11.782;2024-02-14T04:05:27;95857.08;;;2.02;49.02
48156;BME280;35568;48.104;11.782;2024-02-14T04:07:54;95858.51;;;1.86;49.21
48156;BME280;35568;48.104;11.782;2024-02-14T04:10:21;95861.89;;;1.76;49.44
48156;BME280;35568;48.104;11.782;2024-02-14T04:12:49;95865.41;;;1.67;49.56
48156;BME280;35568;48.104;11.782;2024-02-14T04:15:15;95864.86;;;2.09;49.73
48156;BME280;35568;48.104;11.782;2024-02-14T04:17:42;95866.06;;;2.08;49.91
48156;BME280;35568;48.104;11.782;2024-02-14T04:20:10;95867.27;;;1.55;50.05
48156;BME280;35568;48.104;11.782;2024-02-14T04:22:37;95863.34;;;1.38;50.36
48156;BME280;35568;48.104;11.782;2024-02-14T04:25:04;95859.70;;;1.58;50.41
48156;BME280;35568;48.104;11.782;2024-02-14T04:27:34;95857.06;;;1.57;50.35
48156;BME280;35568;48.104;11.782;2024-02-14T04:30:02;95855.35;;;1.61;50.17
48156;BME280;35568;48.104;11.782;2024-02-14T04:32:29;95858.77;;;1.57;50.17
48156;BME280;35568;48.104;11.782;2024-02-14T04:34:56;95854.84;;;1.46;50.17
48156;BME280;35568;48.104;11.782;2024-02-14T04:37:23;95854.69;;;1.69;50.11
48156;BME280;35568;48.104;11.782;2024-02-14T04:39:49;95851.04;;;1.63;50.14
48156;BME280;35568;48.104;11.782;2024-02-14T04:42:16;95854.38;;;1.25;50.33
48156;BME280;35568;48.104;11.782;2024-02-14T04:44:43;95856.79;;;1.14;50.57
48156;BME280;35568;48.104;11.782;2024-02-14T04:47:10;95857.89;;;1.37;50.77
48156;BME280;35568;48.104;11.782;2024-02-14T04:49:37;95859.33;;;1.40;50.78
48156;BME280;35568;48.104;11.782;2024-02-14T04:52:04;95858.06;;;1.00;50.76
48156;BME280;35568;48.104;11.782;2024-02-14T04:54:32;95855.41;;;1.29;50.61
48156;BME280;35568;48.104;11.782;2024-02-14T04:56:59;95849.97;;;1.48;50.29
48156;BME280;35568;48.104;11.782;2024-02-14T04:59:26;95850.85;;;1.53;50.25
48156;BME280;35568;48.104;11.782;2024-02-14T05:01:52;95852.24;;;1.97;49.78
48156;BME280;35568;48.104;11.782;2024-02-14T05:04:19;95848.04;;;1.89;49.63
48156;BME280;35568;48.104;11.782;2024-02-14T05:06:46;95843.60;;;2.04;49.41
48156;BME280;35568;48.104;11.782;2024-02-14T05:09:13;95842.93;;;2.03;49.41
48156;BME280;35568;48.104;11.782;2024-02-14T05:11:40;95842.04;;;1.90;49.30
48156;BME280;35568;48.104;11.782;2024-02-14T05:14:07;95846.08;;;2.01;49.35
48156;BME280;35568;48.104;11.782;2024-02-14T05:16:34;95849.23;;;2.14;49.15
48156;BME280;35568;48.104;11.782;2024-02-14T05:19:01;95850.09;;;2.46;48.94
48156;BME280;35568;48.104;11.782;2024-02-14T05:21:29;95847.85;;;2.42;48.96
48156;BME280;35568;48.104;11.782;2024-02-14T05:23:55;95848.39;;;2.54;48.82
48156;BME280;35568;48.104;11.782;2024-02-14T05:26:23;95848.25;;;2.47;48.77
48156;BME280;35568;48.104;11.782;2024-02-14T05:28:49;95844.74;;;2.21;49.00
48156;BME280;35568;48.104;11.782;2024-02-14T05:31:16;95845.14;;;2.39;49.14
48156;BME280;35568;48.104;11.782;2024-02-14T05:33:43;95842.12;;;2.57;48.96
48156;BME280;35568;48.104;11.782;2024-02-14T05:36:10;95845.97;;;2.55;48.54
48156;BME280;35568;48.104;11.782;2024-02-14T05:38:37;95844.26;;;2.60;48.19
48156;BME280;35568;48.104;11.782;2024-02-14T05:41:04;95847.55;;;2.51;48.38
48156;BME280;35568;48.104;11.782;2024-02-14T05:43:31;95844.78;;;2.47;48.50
48156;BME280;35568;48.104;11.782;2024-02-14T05:45:58;95849.96;;;2.40;48.60
48156;BME280;35568;48.104;11.782;2024-02-14T05:48:25;95852.62;;;2.35;48.59
48156;BME280;35568;48.104;11.782;2024-02-14T05:50:53;95856.20;;;2.33;48.58
48156;BME280;35568;48.104;11.782;2024-02-14T05:53:20;95858.06;;;2.45;48.28
48156;BME280;35568;48.104;11.782;2024-02-14T05:55:47;95861.81;;;2.17;47.93
48156;BME280;35568;48.104;11.782;2024-02-14T05:58:14;95859.10;;;2.42;48.21
48156;BME280;35568;48.104;11.782;2024-02-14T06:00:40;95856.34;;;2.50;48.00
48156;BME280;35568;48.104;11.782;2024-02-14T06:03:07;95858.41;;;2.67;48.19
48156;BME280;35568;48.104;11.782;2024-02-14T06:05:35;95862.47;;;2.57;47.81
48156;BME280;35568;48.104;11.782;2024-02-14T06:08:03;95864.59;;;2.68;48.00
48156;BME280;35568;48.104;11.782;2024-02-14T06:10:31;95870.43;;;2.75;47.82
48156;BME280;35568;48.104;11.782;2024-02-14T06:12:58;95874.59;;;2.56;47.75
48156;BME280;35568;48.104;11.782;2024-02-14T06:15:25;95873.72;;;2.78;47.59
48156;BME280;35568;48.104;11.782;2024-02-14T06:17:52;95875.56;;;2.79;47.94
48156;BME280;35568;48.104;11.782;2024-02-14T06:20:19;95879.54;;;2.88;47.55
48156;BME280;35568;48.104;11.782;2024-02-14T06:22:46;95885.18;;;2.45;47.27
48156;BME280;35568;48.104;11.782;2024-02-14T06:25:13;95886.43;;;2.47;47.19
48156;BME280;35568;48.104;11.782;2024-02-14T06:27:40;95887.90;;;2.99;46.72
48156;BME280;35568;48.104;11.782;2024-02-14T06:30:08;95890.25;;;3.02;46.62
48156;BME280;35568;48.104;11.782;2024-02-14T06:32:35;95896.89;;;3.23;46.48
48156;BME280;35568;48.104;11.782;2024-02-14T06:35:02;95897.17;;;2.87;46.79
48156;BME280;35568;48.104;11.782;2024-02-14T06:37:30;95897.84;;;2.93;46.69
48156;BME280;35568;48.104;11.782;2024-02-14T06:39:57;95901.37;;;2.99;46.32
48156;BME280;35568;48.104;11.782;2024-02-14T06:42:23;95902.36;;;3.09;46.31
48156;BME280;35568;48.104;11.782;2024-02-14T06:44:50;95905.98;;;3.03;46.03
48156;BME280;35568;48.104;11.782;2024-02-14T06:47:17;95905.53;;;3.09;46.16
48156;BME280;35568;48.104;11.782;2024-02-14T06:49:49;95906.38;;;2.92;46.31
48156;BME280;35568;48.104;11.782;2024-02-14T06:52:16;95904.59;;;2.97;46.32
48156;BME280;35568;48.104;11.782;2024-02-14T06:54:43;95908.36;;;3.20;45.70
48156;BME280;35568;48.104;11.782;2024-02-14T06:57:11;95904.02;;;3.06;46.10
48156;BME280;35568;48.104;11.782;2024-02-14T06:59:37;95901.90;;;2.82;46.74
48156;BME280;35568;48.104;11.782;2024-02-14T07:02:05;95901.66;;;3.04;46.39
48156;BME280;35568;48.104;11.782;2024-02-14T07:04:32;95901.08;;;3.35;45.83
48156;BME280;35568;48.104;11.782;2024-02-14T07:06:59;95899.22;;;3.43;45.81
48156;BME280;35568;48.104;11.782;2024-02-14T07:09:26;95899.76;;;3.71;45.53
48156;BME280;35568;48.104;11.782;2024-02-14T07:11:53;95898.57;;;4.03;45.01
48156;BME280;35568;48.104;11.782;2024-02-14T07:14:20;95899.13;;;3.84;44.94
48156;BME280;35568;48.104;11.782;2024-02-14T07:16:52;95903.71;;;3.88;44.96
48156;BME280;35568;48.104;11.782;2024-02-14T07:19:19;95912.03;;;3.87;44.83
48156;BME280;35568;48.104;11.782;2024-02-14T07:21:47;95916.73;;;3.89;44.06
48156;BME280;35568;48.104;11.782;2024-02-14T07:24:14;95925.24;;;3.69;44.14
48156;BME280;35568;48.104;11.782;2024-02-14T07:26:41;95925.32;;;3.90;44.08
48156;BME280;35568;48.104;11.782;2024-02-14T07:29:08;95923.30;;;3.86;44.09
48156;BME280;35568;48.104;11.782;2024-02-14T07:31:36;95928.36;;;4.14;43.82
48156;BME280;35568;48.104;11.782;2024-02-14T07:34:02;95927.95;;;4.13;43.66
48156;BME280;35568;48.104;11.782;2024-02-14T07:36:35;95932.20;;;4.17;43.23
48156;BME280;35568;48.104;11.782;2024-02-14T07:39:02;95936.29;;;4.06;43.13
48156;BME280;35568;48.104;11.782;2024-02-14T07:41:29;95939.22;;;4.22;42.88
48156;BME280;35568;48.104;11.782;2024-02-14T07:43:57;95941.76;;;4.72;43.06
48156;BME280;35568;48.104;11.782;2024-02-14T07:46:24;95943.99;;;4.55;42.20
48156;BME280;35568;48.104;11.782;2024-02-14T07:48:51;95943.47;;;4.37;42.33
48156;BME280;35568;48.104;11.782;2024-02-14T07:51:19;95940.14;;;4.41;42.42
48156;BME280;35568;48.104;11.782;2024-02-14T07:53:46;95944.12;;;5.17;41.75
48156;BME280;35568;48.104;11.782;2024-02-14T07:56:13;95942.68;;;4.67;42.13
48156;BME280;35568;48.104;11.782;2024-02-14T07:58:40;95940.92;;;4.77;41.64
48156;BME280;35568;48.104;11.782;2024-02-14T08:01:07;95947.90;;;5.32;41.59
48156;BME280;35568;48.104;11.782;2024-02-14T08:03:34;95946.84;;;5.17;40.95
48156;BME280;35568;48.104;11.782;2024-02-14T08:06:01;95949.43;;;5.53;41.15
48156;BME280;35568;48.104;11.782;2024-02-14T08:08:28;95947.46;;;5.60;40.47
48156;BME280;35568;48.104;11.782;2024-02-14T08:10:54;95948.00;;;5.14;39.77
48156;BME280;35568;48.104;11.782;2024-02-14T08:13:39;95951.11;;;5.69;40.30
48156;BME280;35568;48.104;11.782;2024-02-14T08:16:07;95952.95;;;5.36;39.98
48156;BME280;35568;48.104;11.782;2024-02-14T08:18:34;95950.15;;;5.33;39.84
48156;BME280;35568;48.104;11.782;2024-02-14T08:21:01;95948.73;;;5.78;40.02
48156;BME280;35568;48.104;11.782;2024-02-14T08:23:28;95952.34;;;6.19;40.34
48156;BME280;35568;48.104;11.782;2024-02-14T08:25:55;95955.84;;;5.91;39.84
48156;BME280;35568;48.104;11.782;2024-02-14T08:28:21;95955.57;;;5.97;39.38
48156;BME280;35568;48.104;11.782;2024-02-14T08:30:48;95953.58;;;6.19;40.06
48156;BME280;35568;48.104;11.782;2024-02-14T08:33:15;95955.75;;;6.06;39.49
48156;BME280;35568;48.104;11.782;2024-02-14T08:35:42;95955.68;;;6.39;39.44
48156;BME280;35568;48.104;11.782;2024-02-14T08:38:10;95956.45;;;6.22;38.82
48156;BME280;35568;48.104;11.782;2024-02-14T08:40:37;95954.85;;;6.28;38.65
48156;BME280;35568;48.104;11.782;2024-02-14T08:43:04;95955.50;;;6.14;38.72
48156;BME280;35568;48.104;11.782;2024-02-14T08:45:30;95960.09;;;6.29;38.39
48156;BME280;35568;48.104;11.782;2024-02-14T08:47:57;95962.88;;;6.35;38.58
48156;BME280;35568;48.104;11.782;2024-02-14T08:50:24;95961.35;;;6.40;38.35
48156;BME280;35568;48.104;11.782;2024-02-14T08:52:51;95958.56;;;6.10;38.25
48156;BME280;35568;48.104;11.782;2024-02-14T08:55:18;95955.94;;;6.29;38.06
48156;BME280;35568;48.104;11.782;2024-02-14T08:57:45;95951.60;;;6.53;37.94
48156;BME280;35568;48.104;11.782;2024-02-14T09:00:12;95950.75;;;6.70;37.95
48156;BME280;35568;48.104;11.782;2024-02-14T09:02:39;95951.61;;;6.85;37.17
48156;BME280;35568;48.104;11.782;2024-02-14T09:05:06;95952.31;;;6.68;37.24
48156;BME280;35568;48.104;11.782;2024-02-14T09:07:34;95952.66;;;6.85;37.00
48156;BME280;35568;48.104;11.782;2024-02-14T09:10:01;95955.29;;;7.22;36.69
48156;BME280;35568;48.104;11.782;2024-02-14T09:12:27;95958.14;;;7.16;36.34
48156;BME280;35568;48.104;11.782;2024-02-14T09:14:55;95961.38;;;7.38;36.52
48156;BME280;35568;48.104;11.782;2024-02-14T09:17:22;95956.29;;;7.57;35.83
48156;BME280;35568;48.104;11.782;2024-02-14T09:19:49;95959.21;;;8.16;35.20
48156;BME280;35568;48.104;11.782;2024-02-14T09:22:15;95960.11;;;8.35;35.15
48156;BME280;35568;48.104;11.782;2024-02-14T09:24:42;95961.41;;;8.47;34.62
48156;BME280;35568;48.104;11.782;2024-02-14T09:27:10;95961.24;;;8.58;34.31
48156;BME280;35568;48.104;11.782;2024-02-14T09:29:37;95957.72;;;8.91;34.25
48156;BME280;35568;48.104;11.782;2024-02-14T09:32:04;95957.18;;;8.45;34.36
48156;BME280;35568;48.104;11.782;2024-02-14T09:34:31;95953.34;;;8.70;33.86
48156;BME280;35568;48.104;11.782;2024-02-14T09:36:59;95949.87;;;8.96;33.51
48156;BME280;35568;48.104;11.782;2024-02-14T09:39:26;95948.57;;;9.02;33.27
48156;BME280;35568;48.104;11.782;2024-02-14T09:41:54;95946.80;;;9.44;33.10
48156;BME280;35568;48.104;11.782;2024-02-14T09:44:25;95945.16;;;9.74;32.87
48156;BME280;35568;48.104;11.782;2024-02-14T09:46:55;95950.46;;;10.04;32.09
48156;BME280;35568;48.104;11.782;2024-02-14T09:49:23;95951.10;;;9.86;32.31
48156;BME280;35568;48.104;11.782;2024-02-14T09:51:52;95959.07;;;9.94;31.93
48156;BME280;35568;48.104;11.782;2024-02-14T09:54:20;95957.88;;;9.81;32.15
48156;BME280;35568;48.104;11.782;2024-02-14T09:56:49;95960.52;;;10.27;31.94
48156;BME280;35568;48.104;11.782;2024-02-14T09:59:17;95961.70;;;10.66;31.94
48156;BME280;35568;48.104;11.782;2024-02-14T10:01:44;95956.05;;;10.17;31.61
48156;BME280;35568;48.104;11.782;2024-02-14T10:04:11;95955.72;;;11.02;31.34
48156;BME280;35568;48.104;11.782;2024-02-14T10:06:38;95952.35;;;10.60;31.34
48156;BME280;35568;48.104;11.782;2024-02-14T10:09:05;95953.87;;;10.87;31.19
48156;BME280;35568;48.104;11.782;2024-02-14T10:11:32;95948.08;;;10.98;30.91
48156;BME280;35568;48.104;11.782;2024-02-14T10:13:58;95944.61;;;11.48;30.94
48156;BME280;35568;48.104;11.782;2024-02-14T10:16:26;95944.05;;;11.25;30.32
48156;BME280;35568;48.104;11.782;2024-02-14T10:18:53;95946.16;;;10.85;30.90
48156;BME280;35568;48.104;11.782;2024-02-14T10:21:20;95948.81;;;11.12;30.83
48156;BME280;35568;48.104;11.782;2024-02-14T10:23:46;95946.28;;;10.64;31.07
48156;BME280;35568;48.104;11.782;2024-02-14T10:26:14;95944.05;;;11.14;31.94
48156;BME280;35568;48.104;11.782;2024-02-14T10:28:41;95942.76;;;11.13;31.12
48156;BME280;35568;48.104;11.782;2024-02-14T10:31:10;95941.73;;;11.16;31.21
48156;BME280;35568;48.104;11.782;2024-02-14T10:33:37;95934.78;;;11.80;31.00
48156;BME280;35568;48.104;11.782;2024-02-14T10:36:07;95936.75;;;11.85;30.69
48156;BME280;35568;48.104;11.782;2024-02-14T10:38:35;95931.41;;;11.78;30.87
48156;BME280;35568;48.104;11.782;2024-02-14T10:41:03;95930.74;;;11.96;30.81
48156;BME280;35568;48.104;11.782;2024-02-14T10:43:31;95930.55;;;11.95;30.64
48156;BME280;35568;48.104;11.782;2024-02-14T10:46:00;95929.07;;;11.81;30.44
48156;BME280;35568;48.104;11.782;2024-02-14T10:48:34;95928.67;;;12.33;30.23
48156;BME280;35568;48.104;11.782;2024-02-14T10:51:02;95924.77;;;13.24;29.17
48156;BME280;35568;48.104;11.782;2024-02-14T10:53:32;95922.60;;;13.17;28.53
48156;BME280;35568;48.104;11.782;2024-02-14T10:56:00;95924.05;;;13.94;28.08
48156;BME280;35568;48.104;11.782;2024-02-14T10:58:28;95925.64;;;14.32;27.89
48156;BME280;35568;48.104;11.782;2024-02-14T11:00:56;95926.70;;;14.45;27.30
48156;BME280;35568;48.104;11.782;2024-02-14T11:03:25;95928.99;;;14.59;27.43
48156;BME280;35568;48.104;11.782;2024-02-14T11:05:53;95928.67;;;14.71;27.18
48156;BME280;35568;48.104;11.782;2024-02-14T11:08:21;95927.42;;;15.41;26.31
48156;BME280;35568;48.104;11.782;2024-02-14T11:10:53;95926.66;;;15.61;26.21
48156;BME280;35568;48.104;11.782;2024-02-14T11:13:21;95929.05;;;16.07;25.82
48156;BME280;35568;48.104;11.782;2024-02-14T11:15:52;95920.40;;;15.96;26.24
48156;BME280;35568;48.104;11.782;2024-02-14T11:18:30;95919.41;;;15.40;26.56
48156;BME280;35568;48.104;11.782;2024-02-14T11:20:57;95917.77;;;15.44;26.75
48156;BME280;35568;48.104;11.782;2024-02-14T11:23:25;95911.10;;;15.93;27.06
48156;BME280;35568;48.104;11.782;2024-02-14T11:25:59;95913.57;;;15.56;26.48
48156;BME280;35568;48.104;11.782;2024-02-14T11:28:28;95906.29;;;15.98;26.78
48156;BME280;35568;48.104;11.782;2024-02-14T11:31:00;95906.23;;;15.65;26.19
48156;BME280;35568;48.104;11.782;2024-02-14T11:33:27;95896.42;;;16.85;26.38
48156;BME280;35568;48.104;11.782;2024-02-14T11:35:54;95892.71;;;16.46;25.36
48156;BME280;35568;48.104;11.782;2024-02-14T11:38:22;95888.17;;;16.38;25.50
48156;BME280;35568;48.104;11.782;2024-02-14T11:40:50;95884.62;;;16.60;26.67
48156;BME280;35568;48.104;11.782;2024-02-14T11:43:18;95883.25;;;16.67;25.90
48156;BME280;35568;48.104;11.782;2024-02-14T11:45:46;95883.73;;;17.12;25.55
48156;BME280;35568;48.104;11.782;2024-02-14T11:48:13;95881.84;;;18.09;24.89
48156;BME280;35568;48.104;11.782;2024-02-14T11:50:41;95875.47;;;18.15;24.57
48156;BME280;35568;48.104;11.782;2024-02-14T11:53:10;95872.70;;;18.69;24.31
48156;BME280;35568;48.104;11.782;2024-02-14T11:55:38;95868.90;;;18.97;24.33
48156;BME280;35568;48.104;11.782;2024-02-14T11:58:07;95869.44;;;17.92;24.60
48156;BME280;35568;48.104;11.782;2024-02-14T12:00:34;95870.87;;;18.17;25.19
48156;BME280;35568;48.104;11.782;2024-02-14T12:03:01;95867.79;;;16.13;25.74
48156;BME280;35568;48.104;11.782;2024-02-14T12:05:29;95874.17;;;16.16;26.81
48156;BME280;35568;48.104;11.782;2024-02-14T12:07:56;95863.93;;;16.77;27.19
48156;BME280;35568;48.104;11.782;2024-02-14T12:10:23;95860.89;;;16.56;27.72
48156;BME280;35568;48.104;11.782;2024-02-14T12:12:50;95857.20;;;16.82;27.46
48156;BME280;35568;48.104;11.782;2024-02-14T12:15:17;95852.75;;;16.45;27.70
48156;BME280;35568;48.104;11.782;2024-02-14T12:17:47;95865.57;;;16.07;27.68
48156;BME280;35568;48.104;11.782;2024-02-14T12:20:15;95864.86;;;15.91;28.08
48156;BME280;35568;48.104;11.782;2024-02-14T12:22:42;95870.32;;;15.25;28.91
48156;BME280;35568;48.104;11.782;2024-02-14T12:25:10;95871.48;;;15.58;28.89
48156;BME280;35568;48.104;11.782;2024-02-14T12:27:37;95873.67;;;15.04;28.87
48156;BME280;35568;48.104;11.782;2024-02-14T12:30:06;95876.96;;;15.08;29.01
48156;BME280;35568;48.104;11.782;2024-02-14T12:32:34;95880.23;;;14.85;29.36
48156;BME280;35568;48.104;11.782;2024-02-14T12:35:01;95878.22;;;14.60;29.80
48156;BME280;35568;48.104;11.782;2024-02-14T12:37:28;95878.00;;;15.09;29.80
48156;BME280;35568;48.104;11.782;2024-02-14T12:39:54;95880.32;;;15.39;29.78
48156;BME280;35568;48.104;11.782;2024-02-14T12:42:21;95880.38;;;15.47;29.30
48156;BME280;35568;48.104;11.782;2024-02-14T12:44:48;95878.68;;;15.40;29.64
48156;BME280;35568;48.104;11.782;2024-02-14T12:47:15;95864.38;;;15.96;29.21
48156;BME280;35568;48.104;11.782;2024-02-14T12:49:41;95862.50;;;15.90;28.55
48156;BME280;35568;48.104;11.782;2024-02-14T12:52:08;95866.53;;;15.70;28.34
48156;BME280;35568;48.104;11.782;2024-02-14T12:54:35;95866.25;;;15.69;28.58
48156;BME280;35568;48.104;11.782;2024-02-14T12:57:02;95865.56;;;15.73;28.71
48156;BME280;35568;48.104;11.782;2024-02-14T12:59:29;95873.63;;;15.60;29.49